createdAt,value
2023-04-19T00:03:59.651Z,12.97
2023-04-19T00:14:25.684Z,13.00
2023-04-19T00:24:51.025Z,12.98
2023-04-19T00:35:16.904Z,12.94
2023-04-19T00:45:43.099Z,12.91
2023-04-19T00:56:10.986Z,12.92
2023-04-19T01:06:37.863Z,12.91
2023-04-19T01:17:03.599Z,12.88
2023-04-19T01:27:29.541Z,12.77
2023-04-19T01:37:56.573Z,12.68
2023-04-19T01:48:22.657Z,12.65
2023-04-19T01:58:48.285Z,12.61
2023-04-19T02:09:14.195Z,12.62
2023-04-19T02:19:39.628Z,12.63
2023-04-19T02:30:06.311Z,12.56
2023-04-19T02:40:31.890Z,12.41
2023-04-19T02:50:57.498Z,12.18
2023-04-19T03:01:23.398Z,11.83
2023-04-19T03:11:49.189Z,11.30
2023-04-19T03:22:14.978Z,11.14
2023-04-19T03:32:41.070Z,11.05
2023-04-19T03:43:07.059Z,10.95
2023-04-19T03:53:33.114Z,10.70
2023-04-19T04:04:00.111Z,10.50
2023-04-19T04:14:26.435Z,10.33
2023-04-19T04:24:53.988Z,10.20
2023-04-19T04:35:20.945Z,10.10
2023-04-19T04:45:55.909Z,10.05
2023-04-19T04:56:21.647Z,10.12
2023-04-19T05:06:47.334Z,10.22
2023-04-19T05:17:13.071Z,10.45
2023-04-19T05:27:39.001Z,10.69
2023-04-19T05:38:04.652Z,10.80
2023-04-19T05:48:30.563Z,10.62
2023-04-19T05:58:56.781Z,10.53
2023-04-19T06:09:22.638Z,10.49
2023-04-19T06:19:48.628Z,10.46
2023-04-19T06:30:15.607Z,10.44
2023-04-19T06:40:41.357Z,10.26
2023-04-19T06:51:07.512Z,9.90
2023-04-19T07:01:33.776Z,9.58
2023-04-19T07:11:59.784Z,9.35
2023-04-19T07:22:25.603Z,9.35
2023-04-19T07:32:53.941Z,9.42
2023-04-19T07:43:20.091Z,9.29
2023-04-19T07:53:48.093Z,9.06
2023-04-19T08:04:14.002Z,8.98
2023-04-19T08:14:56.147Z,8.84
2023-04-19T08:25:28.629Z,8.67
2023-04-19T08:35:54.329Z,8.69
2023-04-19T08:46:20.946Z,8.71
2023-04-19T08:56:46.459Z,8.78
2023-04-19T09:07:23.716Z,9.05
2023-04-19T09:18:07.229Z,9.14
2023-04-19T09:28:33.464Z,9.37
2023-04-19T09:38:59.556Z,9.47
2023-04-19T09:49:41.816Z,9.50
2023-04-19T10:00:15.801Z,9.54
2023-04-19T10:10:45.524Z,9.56
2023-04-19T10:21:13.102Z,9.62
2023-04-19T10:31:42.116Z,9.68
2023-04-19T10:42:08.357Z,9.71
2023-04-19T10:52:34.856Z,9.71
2023-04-19T11:03:00.837Z,9.62
2023-04-19T11:13:27.222Z,9.53
2023-04-19T11:24:09.248Z,9.51
2023-04-19T11:34:38.720Z,9.44
2023-04-19T11:55:36.676Z,9.28
2023-04-19T12:06:05.100Z,9.19
2023-04-19T12:16:31.664Z,9.17
2023-04-19T12:26:59.153Z,9.16
2023-04-19T12:37:25.956Z,9.00
2023-04-19T12:47:52.110Z,8.95
2023-04-19T12:58:21.087Z,8.88
2023-04-19T13:08:47.710Z,8.80
2023-04-19T13:19:13.956Z,8.85
2023-04-19T13:29:40.181Z,8.85
2023-04-19T13:40:17.877Z,8.87
2023-04-19T13:50:44.917Z,8.80
2023-04-19T14:01:10.820Z,8.67
2023-04-19T14:11:38.420Z,8.63
2023-04-19T14:22:04.617Z,8.60
2023-04-19T14:32:30.947Z,8.55
2023-04-19T14:42:57.223Z,8.46
2023-04-19T14:53:23.092Z,8.50
2023-04-19T15:03:49.037Z,8.53
2023-04-19T15:14:15.038Z,8.45
2023-04-19T15:24:40.917Z,8.40
2023-04-19T15:35:08.239Z,8.41
2023-04-19T15:45:33.730Z,8.45
2023-04-19T15:55:59.376Z,8.47
2023-04-19T16:06:25.257Z,8.45
2023-04-19T16:16:51.383Z,8.48
2023-04-19T16:27:18.197Z,8.54
2023-04-19T16:37:44.086Z,8.43
2023-04-19T16:48:10.733Z,8.53
2023-04-19T16:58:36.282Z,8.63
2023-04-19T17:09:05.277Z,8.64
2023-04-19T17:19:29.475Z,8.67
2023-04-19T17:29:55.412Z,8.64
2023-04-19T17:40:21.559Z,8.63
2023-04-19T17:50:48.184Z,8.66
2023-04-19T18:01:15.386Z,8.70
2023-04-19T18:11:41.852Z,8.71
2023-04-19T18:22:07.869Z,8.61
2023-04-19T18:32:34.209Z,8.56
2023-04-19T18:43:00.143Z,8.60
2023-04-19T18:53:28.697Z,8.71
2023-04-19T19:04:21.333Z,8.77
2023-04-19T19:14:40.883Z,8.87
2023-04-19T19:25:06.873Z,9.07
2023-04-19T19:35:32.517Z,9.01
2023-04-19T19:45:58.337Z,8.96
2023-04-19T19:56:24.475Z,8.99
2023-04-19T20:17:20.264Z,9.24
2023-04-19T20:27:46.047Z,9.48
2023-04-19T20:38:12.913Z,9.74
2023-04-19T20:48:38.661Z,9.92
2023-04-19T20:59:04.352Z,9.76
2023-04-19T21:09:29.691Z,9.63
2023-04-19T21:19:55.507Z,9.63
2023-04-19T21:30:23.215Z,9.62
2023-04-19T21:40:49.835Z,9.61
2023-04-19T21:51:17.308Z,9.41
2023-04-19T22:01:43.492Z,9.43
2023-04-19T22:12:11.630Z,9.55
2023-04-19T22:22:37.376Z,9.89
2023-04-19T22:33:03.616Z,9.88
2023-04-19T22:43:30.036Z,9.75
2023-04-19T22:53:56.039Z,9.80
2023-04-19T23:04:21.887Z,10.01
2023-04-19T23:14:48.494Z,10.28
2023-04-19T23:25:14.524Z,10.29
2023-04-19T23:35:40.160Z,10.14
2023-04-19T23:46:05.665Z,10.14
2023-04-19T23:56:31.328Z,10.22
